sensor_id;sensor_type;location;lat;lon;timestamp;P1;durP1;ratioP1;P2;durP2;ratioP2
48207;SDS011;33997;53.278;9.708;2023-03-14T00:01:09;13.15;;;3.25;;
48207;SDS011;33997;53.278;9.708;2023-03-14T00:03:43;9.32;;;3.50;;
48207;SDS011;33997;53.278;9.708;2023-03-14T00:06:09;8.48;;;3.05;;
48207;SDS011;33997;53.278;9.708;2023-03-14T00:08:35;7.97;;;3.30;;
48207;SDS011;33997;53.278;9.708;2023-03-14T00:11:05;10.38;;;3.10;;
48207;SDS011;33997;53.278;9.708;2023-03-14T00:13:32;10.00;;;3.78;;
48207;SDS011;33997;53.278;9.708;2023-03-14T00:16:08;8.75;;;3.40;;
48207;SDS011;33997;53.278;9.708;2023-03-14T00:18:35;13.10;;;3.70;;
48207;SDS011;33997;53.278;9.708;2023-03-14T00:21:01;10.55;;;4.10;;
48207;SDS011;33997;53.278;9.708;2023-03-14T00:23:29;9.00;;;3.40;;
48207;SDS011;33997;53.278;9.708;2023-03-14T00:25:59;10.88;;;3.78;;
48207;SDS011;33997;53.278;9.708;2023-03-14T00:28:26;10.85;;;3.50;;
48207;SDS011;33997;53.278;9.708;2023-03-14T00:30:52;13.35;;;3.30;;
48207;SDS011;33997;53.278;9.708;2023-03-14T00:33:18;6.88;;;3.58;;
48207;SDS011;33997;53.278;9.708;2023-03-14T00:35:51;10.48;;;3.90;;
48207;SDS011;33997;53.278;9.708;2023-03-14T00:38:24;10.65;;;3.58;;
48207;SDS011;33997;53.278;9.708;2023-03-14T00:40:50;11.30;;;3.47;;
48207;SDS011;33997;53.278;9.708;2023-03-14T00:43:16;8.98;;;3.72;;
48207;SDS011;33997;53.278;9.708;2023-03-14T00:45:42;9.50;;;3.78;;
48207;SDS011;33997;53.278;9.708;2023-03-14T00:48:08;11.60;;;3.95;;
48207;SDS011;33997;53.278;9.708;2023-03-14T00:50:34;9.15;;;3.58;;
48207;SDS011;33997;53.278;9.708;2023-03-14T00:52:59;8.95;;;3.47;;
48207;SDS011;33997;53.278;9.708;2023-03-14T00:55:25;8.00;;;3.28;;
48207;SDS011;33997;53.278;9.708;2023-03-14T00:57:50;10.07;;;3.58;;
48207;SDS011;33997;53.278;9.708;2023-03-14T01:00:16;9.57;;;3.42;;
48207;SDS011;33997;53.278;9.708;2023-03-14T01:02:41;8.27;;;3.22;;
48207;SDS011;33997;53.278;9.708;2023-03-14T01:05:07;7.70;;;3.03;;
48207;SDS011;33997;53.278;9.708;2023-03-14T01:07:35;9.88;;;3.20;;
48207;SDS011;33997;53.278;9.708;2023-03-14T01:10:01;12.68;;;3.85;;
48207;SDS011;33997;53.278;9.708;2023-03-14T01:12:27;12.45;;;4.00;;
48207;SDS011;33997;53.278;9.708;2023-03-14T01:14:52;6.65;;;3.13;;
48207;SDS011;33997;53.278;9.708;2023-03-14T01:17:18;7.75;;;3.50;;
48207;SDS011;33997;53.278;9.708;2023-03-14T01:19:43;9.82;;;3.35;;
48207;SDS011;33997;53.278;9.708;2023-03-14T01:22:09;6.80;;;3.40;;
48207;SDS011;33997;53.278;9.708;2023-03-14T01:24:35;8.07;;;3.28;;
48207;SDS011;33997;53.278;9.708;2023-03-14T01:27:02;8.25;;;3.08;;
48207;SDS011;33997;53.278;9.708;2023-03-14T01:29:27;7.18;;;3.05;;
48207;SDS011;33997;53.278;9.708;2023-03-14T01:31:53;10.40;;;3.50;;
48207;SDS011;33997;53.278;9.708;2023-03-14T01:34:18;10.65;;;3.17;;
48207;SDS011;33997;53.278;9.708;2023-03-14T01:36:44;16.48;;;3.13;;
48207;SDS011;33997;53.278;9.708;2023-03-14T01:39:09;7.97;;;2.65;;
48207;SDS011;33997;53.278;9.708;2023-03-14T01:41:35;10.35;;;2.83;;
48207;SDS011;33997;53.278;9.708;2023-03-14T01:44:00;8.57;;;2.75;;
48207;SDS011;33997;53.278;9.708;2023-03-14T01:46:34;8.00;;;2.88;;
48207;SDS011;33997;53.278;9.708;2023-03-14T01:49:05;7.90;;;2.55;;
48207;SDS011;33997;53.278;9.708;2023-03-14T01:51:52;11.68;;;2.78;;
48207;SDS011;33997;53.278;9.708;2023-03-14T01:54:27;6.18;;;2.60;;
48207;SDS011;33997;53.278;9.708;2023-03-14T01:57:04;8.05;;;2.92;;
48207;SDS011;33997;53.278;9.708;2023-03-14T01:59:34;8.70;;;3.08;;
48207;SDS011;33997;53.278;9.708;2023-03-14T02:02:04;9.07;;;3.70;;
48207;SDS011;33997;53.278;9.708;2023-03-14T02:04:32;7.85;;;3.88;;
48207;SDS011;33997;53.278;9.708;2023-03-14T02:07:11;10.13;;;3.70;;
48207;SDS011;33997;53.278;9.708;2023-03-14T02:09:40;10.07;;;3.78;;
48207;SDS011;33997;53.278;9.708;2023-03-14T02:12:08;9.63;;;3.78;;
48207;SDS011;33997;53.278;9.708;2023-03-14T02:14:35;16.60;;;4.60;;
48207;SDS011;33997;53.278;9.708;2023-03-14T02:17:02;8.48;;;3.80;;
48207;SDS011;33997;53.278;9.708;2023-03-14T02:19:39;9.63;;;3.95;;
48207;SDS011;33997;53.278;9.708;2023-03-14T02:22:15;8.48;;;3.50;;
48207;SDS011;33997;53.278;9.708;2023-03-14T02:24:46;9.48;;;4.03;;
48207;SDS011;33997;53.278;9.708;2023-03-14T02:27:24;8.77;;;4.10;;
48207;SDS011;33997;53.278;9.708;2023-03-14T02:32:22;8.15;;;3.78;;
48207;SDS011;33997;53.278;9.708;2023-03-14T02:34:51;9.00;;;3.50;;
48207;SDS011;33997;53.278;9.708;2023-03-14T02:37:20;6.68;;;2.75;;
48207;SDS011;33997;53.278;9.708;2023-03-14T02:39:49;8.38;;;3.08;;
48207;SDS011;33997;53.278;9.708;2023-03-14T02:42:15;7.38;;;2.72;;
48207;SDS011;33997;53.278;9.708;2023-03-14T02:44:54;7.45;;;2.88;;
48207;SDS011;33997;53.278;9.708;2023-03-14T02:47:43;8.57;;;2.53;;
48207;SDS011;33997;53.278;9.708;2023-03-14T02:50:12;7.85;;;2.70;;
48207;SDS011;33997;53.278;9.708;2023-03-14T02:52:41;9.57;;;2.63;;
48207;SDS011;33997;53.278;9.708;2023-03-14T02:55:06;8.45;;;2.80;;
48207;SDS011;33997;53.278;9.708;2023-03-14T02:57:32;9.32;;;2.80;;
48207;SDS011;33997;53.278;9.708;2023-03-14T02:59:58;5.97;;;2.53;;
48207;SDS011;33997;53.278;9.708;2023-03-14T03:02:24;8.10;;;2.58;;
48207;SDS011;33997;53.278;9.708;2023-03-14T03:04:50;10.80;;;2.50;;
48207;SDS011;33997;53.278;9.708;2023-03-14T03:07:16;6.97;;;2.10;;
48207;SDS011;33997;53.278;9.708;2023-03-14T03:09:41;7.25;;;2.50;;
48207;SDS011;33997;53.278;9.708;2023-03-14T03:12:07;9.88;;;2.83;;
48207;SDS011;33997;53.278;9.708;2023-03-14T03:14:32;7.38;;;2.65;;
48207;SDS011;33997;53.278;9.708;2023-03-14T03:16:58;7.70;;;2.53;;
48207;SDS011;33997;53.278;9.708;2023-03-14T03:19:23;9.00;;;2.72;;
48207;SDS011;33997;53.278;9.708;2023-03-14T03:21:49;14.75;;;2.85;;
48207;SDS011;33997;53.278;9.708;2023-03-14T03:24:14;7.97;;;2.90;;
48207;SDS011;33997;53.278;9.708;2023-03-14T03:26:40;10.38;;;2.60;;
48207;SDS011;33997;53.278;9.708;2023-03-14T03:29:05;13.02;;;2.80;;
48207;SDS011;33997;53.278;9.708;2023-03-14T03:31:31;7.97;;;2.75;;
48207;SDS011;33997;53.278;9.708;2023-03-14T03:33:57;8.88;;;2.70;;
48207;SDS011;33997;53.278;9.708;2023-03-14T03:36:23;7.45;;;2.65;;
48207;SDS011;33997;53.278;9.708;2023-03-14T03:38:49;11.15;;;3.35;;
48207;SDS011;33997;53.278;9.708;2023-03-14T03:41:15;9.88;;;3.00;;
48207;SDS011;33997;53.278;9.708;2023-03-14T03:43:40;9.63;;;2.90;;
48207;SDS011;33997;53.278;9.708;2023-03-14T03:46:06;4.18;;;2.08;;
48207;SDS011;33997;53.278;9.708;2023-03-14T03:48:32;10.55;;;3.05;;
48207;SDS011;33997;53.278;9.708;2023-03-14T03:50:58;8.48;;;2.70;;
48207;SDS011;33997;53.278;9.708;2023-03-14T03:53:24;7.03;;;2.70;;
48207;SDS011;33997;53.278;9.708;2023-03-14T03:55:49;10.50;;;2.70;;
48207;SDS011;33997;53.278;9.708;2023-03-14T03:58:15;10.75;;;3.40;;
48207;SDS011;33997;53.278;9.708;2023-03-14T04:00:40;8.85;;;3.10;;
48207;SDS011;33997;53.278;9.708;2023-03-14T04:03:06;6.07;;;2.95;;
48207;SDS011;33997;53.278;9.708;2023-03-14T04:05:31;7.22;;;2.92;;
48207;SDS011;33997;53.278;9.708;2023-03-14T04:07:57;8.60;;;2.83;;
48207;SDS011;33997;53.278;9.708;2023-03-14T04:10:22;8.32;;;3.10;;
48207;SDS011;33997;53.278;9.708;2023-03-14T04:12:48;7.05;;;2.63;;
48207;SDS011;33997;53.278;9.708;2023-03-14T04:15:13;11.77;;;3.22;;
48207;SDS011;33997;53.278;9.708;2023-03-14T04:17:39;13.45;;;3.10;;
48207;SDS011;33997;53.278;9.708;2023-03-14T04:20:04;9.38;;;3.30;;
48207;SDS011;33997;53.278;9.708;2023-03-14T04:22:35;7.20;;;2.88;;
48207;SDS011;33997;53.278;9.708;2023-03-14T04:25:01;7.97;;;3.03;;
48207;SDS011;33997;53.278;9.708;2023-03-14T04:27:28;13.15;;;3.13;;
48207;SDS011;33997;53.278;9.708;2023-03-14T04:29:54;10.05;;;2.95;;
48207;SDS011;33997;53.278;9.708;2023-03-14T04:32:19;9.48;;;3.10;;
48207;SDS011;33997;53.278;9.708;2023-03-14T04:34:45;9.35;;;3.08;;
48207;SDS011;33997;53.278;9.708;2023-03-14T04:37:10;10.90;;;2.75;;
48207;SDS011;33997;53.278;9.708;2023-03-14T04:39:36;6.15;;;2.55;;
48207;SDS011;33997;53.278;9.708;2023-03-14T04:42:01;4.85;;;1.90;;
48207;SDS011;33997;53.278;9.708;2023-03-14T04:44:27;4.60;;;2.13;;
48207;SDS011;33997;53.278;9.708;2023-03-14T04:46:52;5.78;;;2.28;;
48207;SDS011;33997;53.278;9.708;2023-03-14T04:49:18;5.57;;;2.22;;
48207;SDS011;33997;53.278;9.708;2023-03-14T04:51:43;10.18;;;2.88;;
48207;SDS011;33997;53.278;9.708;2023-03-14T04:54:09;9.85;;;2.78;;
48207;SDS011;33997;53.278;9.708;2023-03-14T04:56:35;10.27;;;2.78;;
48207;SDS011;33997;53.278;9.708;2023-03-14T04:59:01;9.02;;;3.40;;
48207;SDS011;33997;53.278;9.708;2023-03-14T05:01:27;7.35;;;2.90;;
48207;SDS011;33997;53.278;9.708;2023-03-14T05:03:53;7.25;;;2.70;;
48207;SDS011;33997;53.278;9.708;2023-03-14T05:06:18;11.00;;;3.13;;
48207;SDS011;33997;53.278;9.708;2023-03-14T05:08:44;6.35;;;3.05;;
48207;SDS011;33997;53.278;9.708;2023-03-14T05:11:10;8.55;;;2.88;;
48207;SDS011;33997;53.278;9.708;2023-03-14T05:13:36;5.93;;;2.55;;
48207;SDS011;33997;53.278;9.708;2023-03-14T05:16:11;11.93;;;2.90;;
48207;SDS011;33997;53.278;9.708;2023-03-14T05:18:36;6.07;;;2.22;;
48207;SDS011;33997;53.278;9.708;2023-03-14T05:21:03;6.90;;;2.60;;
48207;SDS011;33997;53.278;9.708;2023-03-14T05:23:29;8.00;;;3.08;;
48207;SDS011;33997;53.278;9.708;2023-03-14T05:25:54;8.10;;;2.33;;
48207;SDS011;33997;53.278;9.708;2023-03-14T05:28:20;6.63;;;2.40;;
48207;SDS011;33997;53.278;9.708;2023-03-14T05:30:46;9.05;;;2.55;;
48207;SDS011;33997;53.278;9.708;2023-03-14T05:33:11;7.35;;;2.85;;
48207;SDS011;33997;53.278;9.708;2023-03-14T05:35:37;7.32;;;2.60;;
48207;SDS011;33997;53.278;9.708;2023-03-14T05:38:02;6.78;;;2.65;;
48207;SDS011;33997;53.278;9.708;2023-03-14T05:40:28;8.43;;;2.95;;
48207;SDS011;33997;53.278;9.708;2023-03-14T05:42:53;7.47;;;2.63;;
48207;SDS011;33997;53.278;9.708;2023-03-14T05:45:19;6.70;;;2.53;;
48207;SDS011;33997;53.278;9.708;2023-03-14T05:47:44;8.90;;;2.72;;
48207;SDS011;33997;53.278;9.708;2023-03-14T05:50:10;7.68;;;3.00;;
48207;SDS011;33997;53.278;9.708;2023-03-14T05:52:36;6.28;;;2.58;;
48207;SDS011;33997;53.278;9.708;2023-03-14T05:55:01;5.65;;;3.08;;
48207;SDS011;33997;53.278;9.708;2023-03-14T05:57:27;8.98;;;3.25;;
48207;SDS011;33997;53.278;9.708;2023-03-14T05:59:52;6.80;;;2.67;;
48207;SDS011;33997;53.278;9.708;2023-03-14T06:02:18;7.57;;;2.53;;
48207;SDS011;33997;53.278;9.708;2023-03-14T06:04:43;10.25;;;2.70;;
48207;SDS011;33997;53.278;9.708;2023-03-14T06:07:09;7.13;;;3.05;;
48207;SDS011;33997;53.278;9.708;2023-03-14T06:09:34;4.60;;;2.50;;
48207;SDS011;33997;53.278;9.708;2023-03-14T06:12:00;7.10;;;2.42;;
48207;SDS011;33997;53.278;9.708;2023-03-14T06:14:25;6.35;;;2.50;;
48207;SDS011;33997;53.278;9.708;2023-03-14T06:16:51;5.15;;;2.33;;
48207;SDS011;33997;53.278;9.708;2023-03-14T06:19:17;7.43;;;2.20;;
48207;SDS011;33997;53.278;9.708;2023-03-14T06:21:43;4.57;;;2.17;;
48207;SDS011;33997;53.278;9.708;2023-03-14T06:24:08;5.55;;;2.03;;
48207;SDS011;33997;53.278;9.708;2023-03-14T06:26:34;6.30;;;2.20;;
48207;SDS011;33997;53.278;9.708;2023-03-14T06:28:59;6.78;;;2.25;;
48207;SDS011;33997;53.278;9.708;2023-03-14T06:31:28;13.00;;;2.65;;
48207;SDS011;33997;53.278;9.708;2023-03-14T06:33:57;9.95;;;2.75;;
48207;SDS011;33997;53.278;9.708;2023-03-14T06:36:23;10.45;;;2.67;;
48207;SDS011;33997;53.278;9.708;2023-03-14T06:38:49;6.95;;;2.58;;
48207;SDS011;33997;53.278;9.708;2023-03-14T06:41:14;8.80;;;2.78;;
48207;SDS011;33997;53.278;9.708;2023-03-14T06:43:40;7.32;;;2.10;;
48207;SDS011;33997;53.278;9.708;2023-03-14T06:46:05;7.68;;;2.30;;
48207;SDS011;33997;53.278;9.708;2023-03-14T06:48:31;6.72;;;1.80;;
48207;SDS011;33997;53.278;9.708;2023-03-14T06:50:57;4.35;;;1.75;;
48207;SDS011;33997;53.278;9.708;2023-03-14T06:53:22;4.20;;;1.48;;
48207;SDS011;33997;53.278;9.708;2023-03-14T06:55:48;4.75;;;1.42;;
48207;SDS011;33997;53.278;9.708;2023-03-14T06:58:14;4.53;;;1.42;;
48207;SDS011;33997;53.278;9.708;2023-03-14T07:00:40;5.22;;;1.40;;
48207;SDS011;33997;53.278;9.708;2023-03-14T07:03:05;4.07;;;1.30;;
48207;SDS011;33997;53.278;9.708;2023-03-14T07:05:31;2.97;;;1.10;;
48207;SDS011;33997;53.278;9.708;2023-03-14T07:07:56;5.15;;;1.48;;
48207;SDS011;33997;53.278;9.708;2023-03-14T07:10:22;3.53;;;1.50;;
48207;SDS011;33997;53.278;9.708;2023-03-14T07:12:48;3.97;;;1.45;;
48207;SDS011;33997;53.278;9.708;2023-03-14T07:15:14;6.07;;;1.35;;
48207;SDS011;33997;53.278;9.708;2023-03-14T07:17:39;5.00;;;1.85;;
48207;SDS011;33997;53.278;9.708;2023-03-14T07:20:05;4.53;;;2.00;;
48207;SDS011;33997;53.278;9.708;2023-03-14T07:22:31;6.40;;;1.95;;
48207;SDS011;33997;53.278;9.708;2023-03-14T07:24:57;5.82;;;2.65;;
48207;SDS011;33997;53.278;9.708;2023-03-14T07:27:23;4.82;;;2.20;;
48207;SDS011;33997;53.278;9.708;2023-03-14T07:29:49;7.03;;;2.40;;
48207;SDS011;33997;53.278;9.708;2023-03-14T07:32:14;3.92;;;2.25;;
48207;SDS011;33997;53.278;9.708;2023-03-14T07:34:40;10.60;;;2.65;;
48207;SDS011;33997;53.278;9.708;2023-03-14T07:37:06;5.53;;;2.65;;
48207;SDS011;33997;53.278;9.708;2023-03-14T07:39:32;8.20;;;2.97;;
48207;SDS011;33997;53.278;9.708;2023-03-14T07:41:57;11.55;;;3.00;;
48207;SDS011;33997;53.278;9.708;2023-03-14T07:44:23;8.27;;;2.65;;
48207;SDS011;33997;53.278;9.708;2023-03-14T07:46:48;9.55;;;2.72;;
48207;SDS011;33997;53.278;9.708;2023-03-14T07:49:14;7.22;;;3.03;;
48207;SDS011;33997;53.278;9.708;2023-03-14T07:51:39;10.93;;;2.75;;
48207;SDS011;33997;53.278;9.708;2023-03-14T07:54:05;7.65;;;3.15;;
48207;SDS011;33997;53.278;9.708;2023-03-14T07:56:30;9.55;;;3.35;;
48207;SDS011;33997;53.278;9.708;2023-03-14T07:58:56;10.98;;;3.97;;
48207;SDS011;33997;53.278;9.708;2023-03-14T08:01:22;7.35;;;3.17;;
48207;SDS011;33997;53.278;9.708;2023-03-14T08:03:47;10.63;;;3.85;;
48207;SDS011;33997;53.278;9.708;2023-03-14T08:06:13;10.90;;;3.60;;
48207;SDS011;33997;53.278;9.708;2023-03-14T08:08:38;9.27;;;4.15;;
48207;SDS011;33997;53.278;9.708;2023-03-14T08:11:04;8.82;;;3.80;;
48207;SDS011;33997;53.278;9.708;2023-03-14T08:13:33;12.60;;;4.10;;
48207;SDS011;33997;53.278;9.708;2023-03-14T08:15:59;12.38;;;4.25;;
48207;SDS011;33997;53.278;9.708;2023-03-14T08:18:25;11.50;;;4.18;;
48207;SDS011;33997;53.278;9.708;2023-03-14T08:20:50;10.70;;;4.35;;
48207;SDS011;33997;53.278;9.708;2023-03-14T08:23:16;9.77;;;4.03;;
48207;SDS011;33997;53.278;9.708;2023-03-14T08:25:41;8.85;;;4.03;;
48207;SDS011;33997;53.278;9.708;2023-03-14T08:28:08;11.55;;;5.10;;
48207;SDS011;33997;53.278;9.708;2023-03-14T08:30:33;7.60;;;4.30;;
48207;SDS011;33997;53.278;9.708;2023-03-14T08:32:59;12.50;;;4.57;;
48207;SDS011;33997;53.278;9.708;2023-03-14T08:35:25;13.68;;;5.05;;
48207;SDS011;33997;53.278;9.708;2023-03-14T08:37:51;10.93;;;4.95;;
48207;SDS011;33997;53.278;9.708;2023-03-14T08:40:17;11.30;;;4.85;;
48207;SDS011;33997;53.278;9.708;2023-03-14T08:42:43;9.40;;;4.68;;
48207;SDS011;33997;53.278;9.708;2023-03-14T08:45:09;9.48;;;4.30;;
48207;SDS011;33997;53.278;9.708;2023-03-14T08:47:37;7.93;;;4.13;;
48207;SDS011;33997;53.278;9.708;2023-03-14T08:50:03;8.48;;;3.85;;
48207;SDS011;33997;53.278;9.708;2023-03-14T08:52:30;8.50;;;3.60;;
48207;SDS011;33997;53.278;9.708;2023-03-14T08:54:56;10.98;;;3.78;;
48207;SDS011;33997;53.278;9.708;2023-03-14T08:57:22;8.27;;;3.42;;
48207;SDS011;33997;53.278;9.708;2023-03-14T08:59:52;11.60;;;3.40;;
48207;SDS011;33997;53.278;9.708;2023-03-14T09:02:21;10.65;;;3.33;;
48207;SDS011;33997;53.278;9.708;2023-03-14T09:04:47;11.27;;;3.28;;
48207;SDS011;33997;53.278;9.708;2023-03-14T09:07:12;5.97;;;2.85;;
48207;SDS011;33997;53.278;9.708;2023-03-14T09:09:37;13.25;;;2.80;;
48207;SDS011;33997;53.278;9.708;2023-03-14T09:12:03;9.07;;;2.78;;
48207;SDS011;33997;53.278;9.708;2023-03-14T09:14:29;8.02;;;3.42;;
48207;SDS011;33997;53.278;9.708;2023-03-14T09:16:55;8.23;;;2.38;;
48207;SDS011;33997;53.278;9.708;2023-03-14T09:19:21;7.78;;;2.35;;
48207;SDS011;33997;53.278;9.708;2023-03-14T09:21:46;6.90;;;1.85;;
48207;SDS011;33997;53.278;9.708;2023-03-14T09:24:12;7.53;;;2.65;;
48207;SDS011;33997;53.278;9.708;2023-03-14T09:26:37;5.45;;;2.05;;
48207;SDS011;33997;53.278;9.708;2023-03-14T09:29:03;9.60;;;2.55;;
48207;SDS011;33997;53.278;9.708;2023-03-14T09:31:29;8.55;;;2.20;;
48207;SDS011;33997;53.278;9.708;2023-03-14T09:33:54;6.78;;;2.00;;
48207;SDS011;33997;53.278;9.708;2023-03-14T09:36:20;5.28;;;1.63;;
48207;SDS011;33997;53.278;9.708;2023-03-14T09:38:45;4.45;;;1.73;;
48207;SDS011;33997;53.278;9.708;2023-03-14T09:41:15;5.82;;;1.63;;
48207;SDS011;33997;53.278;9.708;2023-03-14T09:43:50;5.88;;;2.10;;
48207;SDS011;33997;53.278;9.708;2023-03-14T09:46:22;4.18;;;1.95;;
48207;SDS011;33997;53.278;9.708;2023-03-14T09:48:47;7.32;;;2.58;;
48207;SDS011;33997;53.278;9.708;2023-03-14T09:51:14;3.22;;;1.45;;
48207;SDS011;33997;53.278;9.708;2023-03-14T09:53:43;5.38;;;1.75;;
48207;SDS011;33997;53.278;9.708;2023-03-14T09:56:17;3.63;;;1.38;;
48207;SDS011;33997;53.278;9.708;2023-03-14T09:58:51;7.07;;;1.23;;
48207;SDS011;33997;53.278;9.708;2023-03-14T10:01:25;2.97;;;0.70;;
48207;SDS011;33997;53.278;9.708;2023-03-14T10:03:56;1.15;;;0.35;;
48207;SDS011;33997;53.278;9.708;2023-03-14T10:06:26;1.15;;;0.30;;
48207;SDS011;33997;53.278;9.708;2023-03-14T10:08:54;0.75;;;0.25;;
48207;SDS011;33997;53.278;9.708;2023-03-14T10:11:21;3.17;;;0.50;;
48207;SDS011;33997;53.278;9.708;2023-03-14T10:13:49;1.45;;;0.52;;
48207;SDS011;33997;53.278;9.708;2023-03-14T10:16:15;0.75;;;0.55;;
48207;SDS011;33997;53.278;9.708;2023-03-14T10:18:43;2.75;;;0.50;;
48207;SDS011;33997;53.278;9.708;2023-03-14T10:21:20;2.03;;;0.50;;
48207;SDS011;33997;53.278;9.708;2023-03-14T10:23:50;0.73;;;0.40;;
48207;SDS011;33997;53.278;9.708;2023-03-14T10:26:16;3.58;;;1.00;;
48207;SDS011;33997;53.278;9.708;2023-03-14T10:28:47;2.13;;;0.82;;
48207;SDS011;33997;53.278;9.708;2023-03-14T10:31:16;4.88;;;0.90;;
48207;SDS011;33997;53.278;9.708;2023-03-14T10:33:42;1.23;;;0.50;;
48207;SDS011;33997;53.278;9.708;2023-03-14T10:36:22;0.98;;;0.50;;
48207;SDS011;33997;53.278;9.708;2023-03-14T10:38:52;1.95;;;0.30;;
48207;SDS011;33997;53.278;9.708;2023-03-14T10:41:30;2.40;;;0.50;;
48207;SDS011;33997;53.278;9.708;2023-03-14T10:43:57;1.75;;;0.70;;
48207;SDS011;33997;53.278;9.708;2023-03-14T10:46:24;3.65;;;0.77;;
48207;SDS011;33997;53.278;9.708;2023-03-14T10:48:52;1.23;;;0.60;;
48207;SDS011;33997;53.278;9.708;2023-03-14T10:51:25;1.33;;;0.90;;
48207;SDS011;33997;53.278;9.708;2023-03-14T10:56:33;2.30;;;1.42;;
48207;SDS011;33997;53.278;9.708;2023-03-14T10:59:01;4.88;;;1.70;;
48207;SDS011;33997;53.278;9.708;2023-03-14T11:07:01;2.15;;;1.85;;
48207;SDS011;33997;53.278;9.708;2023-03-14T11:12:52;2.22;;;1.30;;
48207;SDS011;33997;53.278;9.708;2023-03-14T11:21:18;3.30;;;0.93;;
48207;SDS011;33997;53.278;9.708;2023-03-14T11:29:19;3.55;;;1.30;;
48207;SDS011;33997;53.278;9.708;2023-03-14T11:31:48;2.03;;;0.90;;
48207;SDS011;33997;53.278;9.708;2023-03-14T11:34:19;2.25;;;1.10;;
48207;SDS011;33997;53.278;9.708;2023-03-14T11:36:58;2.17;;;1.33;;
48207;SDS011;33997;53.278;9.708;2023-03-14T11:39:26;3.58;;;1.55;;
48207;SDS011;33997;53.278;9.708;2023-03-14T11:42:03;5.32;;;2.00;;
48207;SDS011;33997;53.278;9.708;2023-03-14T11:44:30;2.95;;;1.33;;
48207;SDS011;33997;53.278;9.708;2023-03-14T11:49:40;4.65;;;1.17;;
48207;SDS011;33997;53.278;9.708;2023-03-14T11:52:15;3.78;;;1.17;;
48207;SDS011;33997;53.278;9.708;2023-03-14T11:54:49;3.65;;;1.20;;
48207;SDS011;33997;53.278;9.708;2023-03-14T11:57:21;5.68;;;1.13;;
48207;SDS011;33997;53.278;9.708;2023-03-14T12:05:23;4.63;;;1.17;;
48207;SDS011;33997;53.278;9.708;2023-03-14T12:11:17;4.15;;;1.42;;
48207;SDS011;33997;53.278;9.708;2023-03-14T12:13:58;8.85;;;1.77;;
48207;SDS011;33997;53.278;9.708;2023-03-14T12:18:54;6.60;;;1.67;;
48207;SDS011;33997;53.278;9.708;2023-03-14T12:21:20;5.22;;;1.70;;
48207;SDS011;33997;53.278;9.708;2023-03-14T12:23:50;4.95;;;1.65;;
48207;SDS011;33997;53.278;9.708;2023-03-14T12:26:27;7.68;;;1.60;;
48207;SDS011;33997;53.278;9.708;2023-03-14T12:29:15;8.10;;;1.90;;
48207;SDS011;33997;53.278;9.708;2023-03-14T12:31:48;9.98;;;1.40;;
48207;SDS011;33997;53.278;9.708;2023-03-14T12:34:34;4.45;;;1.10;;
48207;SDS011;33997;53.278;9.708;2023-03-14T12:37:14;12.73;;;1.38;;
48207;SDS011;33997;53.278;9.708;2023-03-14T12:44:54;9.38;;;1.33;;
48207;SDS011;33997;53.278;9.708;2023-03-14T12:48:00;9.38;;;1.73;;
48207;SDS011;33997;53.278;9.708;2023-03-14T12:50:40;12.45;;;1.67;;
48207;SDS011;33997;53.278;9.708;2023-03-14T12:56:19;9.07;;;1.55;;
48207;SDS011;33997;53.278;9.708;2023-03-14T13:01:27;15.13;;;2.03;;
48207;SDS011;33997;53.278;9.708;2023-03-14T13:03:54;9.93;;;1.40;;
48207;SDS011;33997;53.278;9.708;2023-03-14T13:12:03;19.02;;;2.00;;
48207;SDS011;33997;53.278;9.708;2023-03-14T13:14:36;15.65;;;2.30;;
48207;SDS011;33997;53.278;9.708;2023-03-14T13:17:10;11.13;;;1.45;;
48207;SDS011;33997;53.278;9.708;2023-03-14T13:19:37;15.80;;;2.90;;
48207;SDS011;33997;53.278;9.708;2023-03-14T13:22:04;9.77;;;1.63;;
48207;SDS011;33997;53.278;9.708;2023-03-14T13:24:37;8.90;;;1.95;;
48207;SDS011;33997;53.278;9.708;2023-03-14T13:27:03;11.98;;;1.63;;
48207;SDS011;33997;53.278;9.708;2023-03-14T13:29:31;10.20;;;2.15;;
48207;SDS011;33997;53.278;9.708;2023-03-14T13:32:01;7.22;;;1.52;;
48207;SDS011;33997;53.278;9.708;2023-03-14T13:34:37;9.68;;;1.40;;
48207;SDS011;33997;53.278;9.708;2023-03-14T13:37:03;7.15;;;1.40;;
48207;SDS011;33997;53.278;9.708;2023-03-14T13:39:28;6.10;;;1.23;;
48207;SDS011;33997;53.278;9.708;2023-03-14T13:42:00;5.53;;;1.45;;
48207;SDS011;33997;53.278;9.708;2023-03-14T13:44:27;3.97;;;1.00;;
48207;SDS011;33997;53.278;9.708;2023-03-14T13:47:03;8.32;;;1.83;;
48207;SDS011;33997;53.278;9.708;2023-03-14T13:49:32;7.70;;;1.80;;
48207;SDS011;33997;53.278;9.708;2023-03-14T13:52:00;5.68;;;1.30;;
48207;SDS011;33997;53.278;9.708;2023-03-14T13:54:26;6.10;;;0.90;;
48207;SDS011;33997;53.278;9.708;2023-03-14T13:57:02;9.70;;;1.58;;
48207;SDS011;33997;53.278;9.708;2023-03-14T13:59:30;5.20;;;1.02;;
48207;SDS011;33997;53.278;9.708;2023-03-14T14:01:58;12.02;;;1.92;;
48207;SDS011;33997;53.278;9.708;2023-03-14T14:04:32;5.75;;;1.67;;
48207;SDS011;33997;53.278;9.708;2023-03-14T14:06:58;8.32;;;1.60;;
48207;SDS011;33997;53.278;9.708;2023-03-14T14:09:29;3.63;;;1.10;;
48207;SDS011;33997;53.278;9.708;2023-03-14T14:12:03;11.55;;;1.85;;
48207;SDS011;33997;53.278;9.708;2023-03-14T14:14:38;6.75;;;0.93;;
48207;SDS011;33997;53.278;9.708;2023-03-14T14:17:18;6.68;;;1.25;;
48207;SDS011;33997;53.278;9.708;2023-03-14T14:19:46;6.18;;;1.33;;
48207;SDS011;33997;53.278;9.708;2023-03-14T14:22:12;8.95;;;1.42;;
48207;SDS011;33997;53.278;9.708;2023-03-14T14:24:38;9.20;;;1.40;;
48207;SDS011;33997;53.278;9.708;2023-03-14T14:29:57;6.35;;;1.55;;
48207;SDS011;33997;53.278;9.708;2023-03-14T14:32:24;12.80;;;1.40;;
48207;SDS011;33997;53.278;9.708;2023-03-14T14:34:57;8.35;;;1.80;;
48207;SDS011;33997;53.278;9.708;2023-03-14T14:37:24;7.53;;;1.90;;
48207;SDS011;33997;53.278;9.708;2023-03-14T14:39:56;7.28;;;1.23;;
48207;SDS011;33997;53.278;9.708;2023-03-14T14:42:25;10.73;;;1.70;;
48207;SDS011;33997;53.278;9.708;2023-03-14T14:44:54;5.75;;;1.33;;
48207;SDS011;33997;53.278;9.708;2023-03-14T14:47:23;7.40;;;1.15;;
48207;SDS011;33997;53.278;9.708;2023-03-14T14:49:51;7.97;;;1.30;;
48207;SDS011;33997;53.278;9.708;2023-03-14T14:52:22;4.47;;;0.88;;
48207;SDS011;33997;53.278;9.708;2023-03-14T14:55:00;13.52;;;2.08;;
48207;SDS011;33997;53.278;9.708;2023-03-14T14:57:33;9.48;;;1.67;;
48207;SDS011;33997;53.278;9.708;2023-03-14T15:00:09;8.63;;;1.70;;
48207;SDS011;33997;53.278;9.708;2023-03-14T15:02:46;9.25;;;1.80;;
48207;SDS011;33997;53.278;9.708;2023-03-14T15:05:20;9.90;;;2.03;;
48207;SDS011;33997;53.278;9.708;2023-03-14T15:07:55;6.82;;;1.33;;
48207;SDS011;33997;53.278;9.708;2023-03-14T15:10:22;9.57;;;1.73;;
48207;SDS011;33997;53.278;9.708;2023-03-14T15:12:49;7.93;;;1.58;;
48207;SDS011;33997;53.278;9.708;2023-03-14T15:15:16;8.15;;;1.83;;
48207;SDS011;33997;53.278;9.708;2023-03-14T15:17:42;11.60;;;1.40;;
48207;SDS011;33997;53.278;9.708;2023-03-14T15:20:12;9.90;;;1.55;;
48207;SDS011;33997;53.278;9.708;2023-03-14T15:22:39;5.07;;;1.48;;
48207;SDS011;33997;53.278;9.708;2023-03-14T15:25:06;6.63;;;1.10;;
48207;SDS011;33997;53.278;9.708;2023-03-14T15:27:32;7.75;;;1.77;;
48207;SDS011;33997;53.278;9.708;2023-03-14T15:29:58;3.55;;;0.85;;
48207;SDS011;33997;53.278;9.708;2023-03-14T15:32:25;8.57;;;1.60;;
48207;SDS011;33997;53.278;9.708;2023-03-14T15:34:52;7.32;;;1.40;;
48207;SDS011;33997;53.278;9.708;2023-03-14T15:37:21;7.25;;;1.60;;
48207;SDS011;33997;53.278;9.708;2023-03-14T15:39:46;11.63;;;1.75;;
48207;SDS011;33997;53.278;9.708;2023-03-14T15:42:12;7.32;;;1.25;;
48207;SDS011;33997;53.278;9.708;2023-03-14T15:44:37;9.57;;;1.42;;
48207;SDS011;33997;53.278;9.708;2023-03-14T15:47:04;5.95;;;1.15;;
48207;SDS011;33997;53.278;9.708;2023-03-14T15:49:30;8.75;;;1.17;;